Time;durP1;ratioP1;P1;durP2;ratioP2;P2;SDS_P1;SDS_P2;PMS_P1;PMS_P2;Temp;Humidity;BMP_temperature;BMP_pressure;BME280_temperature;BME280_humidity;BME280_pressure;Samples;Min_cycle;Max_cycle;Signal;HPM_P1;HPM_P2
2024/02/21 00:00:35;;;;;;;20.92;11.27;;;;;;;;;;5053042;28;20064;-59
2024/02/21 00:03:04;;;;;;;25.42;11.55;;;;;;;;;;5052920;28;20396;-60
2024/02/21 00:05:31;;;;;;;19.63;11.68;;;;;;;;;;5052802;28;20060;-59
2024/02/21 00:07:58;;;;;;;22.42;11.93;;;;;;;;;;5052727;28;20056;-59
2024/02/21 00:10:25;;;;;;;16.88;10.35;;;;;;;;;;5052433;28;20057;-58
2024/02/21 00:12:52;;;;;;;23.98;10.98;;;;;;;;;;5068303;28;20049;-59
2024/02/21 00:15:19;;;;;;;21.83;11.57;;;;;;;;;;5072564;28;20403;-58
2024/02/21 00:17:47;;;;;;;19.88;10.75;;;;;;;;;;5058449;28;20053;-59
2024/02/21 00:20:14;;;;;;;18.45;10.57;;;;;;;;;;5052527;28;20053;-58
2024/02/21 00:22:41;;;;;;;23.00;11.50;;;;;;;;;;5066605;28;20060;-58
2024/02/21 00:25:08;;;;;;;23.48;10.73;;;;;;;;;;5071498;28;20499;-60
2024/02/21 00:27:35;;;;;;;21.95;10.82;;;;;;;;;;5072507;28;20059;-59
2024/02/21 00:30:02;;;;;;;19.77;10.85;;;;;;;;;;5060812;28;20411;-60
2024/02/21 00:32:29;;;;;;;20.15;10.30;;;;;;;;;;5062002;28;20494;-58
2024/02/21 00:34:57;;;;;;;19.60;11.07;;;;;;;;;;5072161;28;20049;-59
2024/02/21 00:37:24;;;;;;;16.98;10.18;;;;;;;;;;5072289;28;20079;-59
2024/02/21 00:39:51;;;;;;;24.15;10.82;;;;;;;;;;5072370;28;20044;-59
2024/02/21 00:42:17;;;;;;;18.73;11.02;;;;;;;;;;5071394;28;20052;-59
2024/02/21 00:44:44;;;;;;;21.80;10.63;;;;;;;;;;5072000;28;20044;-59
2024/02/21 00:47:11;;;;;;;19.77;11.07;;;;;;;;;;5063982;28;20075;-59
2024/02/21 00:49:38;;;;;;;20.95;10.55;;;;;;;;;;5051801;28;20416;-59
2024/02/21 00:52:06;;;;;;;16.92;10.20;;;;;;;;;;5051913;28;20056;-59
2024/02/21 00:54:33;;;;;;;19.23;10.10;;;;;;;;;;5052288;28;20420;-58
2024/02/21 00:57:00;;;;;;;17.45;10.05;;;;;;;;;;5052081;28;20057;-59
2024/02/21 00:59:26;;;;;;;19.25;10.45;;;;;;;;;;5052059;28;20049;-59
2024/02/21 01:01:53;;;;;;;17.20;10.20;;;;;;;;;;5051986;28;20049;-59
2024/02/21 01:04:20;;;;;;;21.88;11.25;;;;;;;;;;5051897;28;20057;-60
2024/02/21 01:06:47;;;;;;;21.48;10.85;;;;;;;;;;5060825;28;20048;-59
2024/02/21 01:09:15;;;;;;;20.42;10.75;;;;;;;;;;5065292;28;20045;-59
2024/02/21 01:11:42;;;;;;;20.50;9.95;;;;;;;;;;5051694;28;20140;-59
2024/02/21 01:14:09;;;;;;;18.10;10.50;;;;;;;;;;5050201;28;20060;-60
2024/02/21 01:16:35;;;;;;;18.70;10.60;;;;;;;;;;5051567;28;20060;-60
2024/02/21 01:19:02;;;;;;;19.77;9.90;;;;;;;;;;5054074;28;20052;-60
2024/02/21 01:21:29;;;;;;;19.35;11.23;;;;;;;;;;5071085;28;20060;-59
2024/02/21 01:23:56;;;;;;;20.08;9.77;;;;;;;;;;5071803;28;20065;-60
2024/02/21 01:26:24;;;;;;;18.83;10.10;;;;;;;;;;5071655;28;20060;-60
2024/02/21 01:28:52;;;;;;;18.05;9.90;;;;;;;;;;5070306;28;20526;-59
2024/02/21 01:31:18;;;;;;;18.35;9.88;;;;;;;;;;5051856;28;20049;-59
2024/02/21 01:33:45;;;;;;;15.38;10.00;;;;;;;;;;5067083;28;20063;-60
2024/02/21 01:36:12;;;;;;;19.63;10.73;;;;;;;;;;5072422;28;20079;-59
2024/02/21 01:38:39;;;;;;;21.73;10.48;;;;;;;;;;5074320;28;20056;-59
2024/02/21 01:41:06;;;;;;;18.85;10.38;;;;;;;;;;5075119;28;20052;-59
2024/02/21 01:43:34;;;;;;;20.13;9.85;;;;;;;;;;5068725;28;20049;-59
2024/02/21 01:46:01;;;;;;;20.58;10.27;;;;;;;;;;5055050;28;20507;-59
2024/02/21 01:48:27;;;;;;;16.80;9.68;;;;;;;;;;5069696;28;20060;-60
2024/02/21 01:50:55;;;;;;;23.60;10.48;;;;;;;;;;5074891;28;20052;-59
2024/02/21 01:53:23;;;;;;;21.80;9.77;;;;;;;;;;5075242;28;20087;-60
2024/02/21 01:55:50;;;;;;;22.63;9.48;;;;;;;;;;5074823;28;20131;-59
2024/02/21 01:58:17;;;;;;;21.05;10.43;;;;;;;;;;5074065;28;20499;-60
2024/02/21 02:00:47;;;;;;;16.73;9.73;;;;;;;;;;5074757;28;20052;-59
2024/02/21 02:03:16;;;;;;;16.83;9.50;;;;;;;;;;5066096;28;20055;-59
2024/02/21 02:05:44;;;;;;;21.38;9.82;;;;;;;;;;5074862;28;20533;-59
2024/02/21 02:08:11;;;;;;;18.15;9.60;;;;;;;;;;5075020;28;20075;-59
2024/02/21 02:10:38;;;;;;;20.27;9.40;;;;;;;;;;5074582;28;20045;-60
2024/02/21 02:13:05;;;;;;;18.95;9.70;;;;;;;;;;5063745;28;20385;-59
2024/02/21 02:15:38;;;;;;;19.88;8.63;;;;;;;;;;5055029;28;20061;-60
2024/02/21 02:18:06;;;;;;;16.05;8.88;;;;;;;;;;5055335;28;20064;-59
2024/02/21 02:20:33;;;;;;;18.70;9.80;;;;;;;;;;5054337;28;20045;-59
2024/02/21 02:23:00;;;;;;;17.27;8.80;;;;;;;;;;5054799;28;20045;-60
2024/02/21 02:25:28;;;;;;;16.00;8.90;;;;;;;;;;5054451;28;20392;-59
2024/02/21 02:27:55;;;;;;;19.40;8.98;;;;;;;;;;5054668;28;20063;-60
2024/02/21 02:30:22;;;;;;;17.45;9.07;;;;;;;;;;5068491;28;20149;-59
2024/02/21 02:32:48;;;;;;;16.65;9.38;;;;;;;;;;5072053;28;20052;-59
2024/02/21 02:35:15;;;;;;;18.77;9.63;;;;;;;;;;5069964;28;20049;-59
2024/02/21 02:37:48;;;;;;;16.73;8.63;;;;;;;;;;5054718;28;20067;-59
2024/02/21 02:40:18;;;;;;;17.90;9.05;;;;;;;;;;5054407;28;20052;-59
2024/02/21 02:42:44;;;;;;;;;;;;;;;;;;5060745;28;20051;-59
2024/02/21 02:45:12;;;;;;;18.52;8.60;;;;;;;;;;5074188;28;19998;-59
2024/02/21 02:47:40;;;;;;;19.13;9.63;;;;;;;;;;5069411;28;20053;-59
2024/02/21 02:50:08;;;;;;;19.38;9.95;;;;;;;;;;5054077;28;20064;-59
2024/02/21 02:52:34;;;;;;;14.98;9.30;;;;;;;;;;5058653;28;20077;-60
2024/02/21 02:55:01;;;;;;;16.65;10.00;;;;;;;;;;5074048;28;20052;-60
2024/02/21 02:57:28;;;;;;;17.55;9.43;;;;;;;;;;5060577;28;20056;-59
2024/02/21 02:59:55;;;;;;;20.55;9.52;;;;;;;;;;5053765;28;20045;-60
2024/02/21 03:02:23;;;;;;;21.48;10.18;;;;;;;;;;5053855;28;20057;-59
2024/02/21 03:04:50;;;;;;;15.48;8.80;;;;;;;;;;5060167;28;20055;-59
2024/02/21 03:07:17;;;;;;;15.68;8.77;;;;;;;;;;5053603;28;20052;-59
2024/02/21 03:09:44;;;;;;;18.58;8.73;;;;;;;;;;5053804;28;20408;-59
2024/02/21 03:12:11;;;;;;;17.40;8.50;;;;;;;;;;5053539;28;20064;-59
2024/02/21 03:14:37;;;;;;;18.58;10.13;;;;;;;;;;5061117;28;20055;-59
2024/02/21 03:17:04;;;;;;;18.25;9.88;;;;;;;;;;5073659;28;20056;-59
2024/02/21 03:19:32;;;;;;;17.65;9.38;;;;;;;;;;5054281;28;20132;-59
2024/02/21 03:21:59;;;;;;;14.50;8.70;;;;;;;;;;5053577;28;20518;-59
2024/02/21 03:24:26;;;;;;;13.20;8.45;;;;;;;;;;5058982;28;20071;-59
2024/02/21 03:26:53;;;;;;;13.68;8.20;;;;;;;;;;5073194;28;20052;-60
2024/02/21 03:29:19;;;;;;;20.20;9.25;;;;;;;;;;5067547;28;20052;-59
2024/02/21 03:31:46;;;;;;;15.55;8.30;;;;;;;;;;5053181;28;20057;-59
2024/02/21 03:34:13;;;;;;;17.05;8.80;;;;;;;;;;5053856;28;20428;-60
2024/02/21 03:36:41;;;;;;;17.38;8.55;;;;;;;;;;5053227;28;20404;-60
2024/02/21 03:39:09;;;;;;;15.07;8.52;;;;;;;;;;5053154;28;20060;-59
2024/02/21 03:41:35;;;;;;;16.45;9.00;;;;;;;;;;5053084;28;20053;-59
2024/02/21 03:44:02;;;;;;;17.38;9.20;;;;;;;;;;5053393;28;20049;-59
2024/02/21 03:46:29;;;;;;;15.10;8.88;;;;;;;;;;5053117;28;20049;-59
2024/02/21 03:48:56;;;;;;;16.48;8.80;;;;;;;;;;5054099;28;20045;-59
2024/02/21 03:51:22;;;;;;;17.17;8.90;;;;;;;;;;5052750;28;20079;-59
2024/02/21 03:53:51;;;;;;;15.88;8.50;;;;;;;;;;5053024;28;20431;-59
2024/02/21 03:56:17;;;;;;;18.65;9.30;;;;;;;;;;5052550;28;20052;-59
2024/02/21 03:58:44;;;;;;;17.70;8.75;;;;;;;;;;5052697;28;20053;-59
2024/02/21 04:01:12;;;;;;;17.23;9.63;;;;;;;;;;5051523;28;20053;-59
2024/02/21 04:03:39;;;;;;;13.77;8.13;;;;;;;;;;5053335;28;20053;-59
2024/02/21 04:06:05;;;;;;;16.67;8.57;;;;;;;;;;5052844;28;20057;-59
2024/02/21 04:08:32;;;;;;;16.25;9.60;;;;;;;;;;5052380;28;20518;-60
2024/02/21 04:11:00;;;;;;;13.50;8.10;;;;;;;;;;5052254;28;20049;-60
2024/02/21 04:13:27;;;;;;;15.63;8.63;;;;;;;;;;5057829;28;20052;-59
2024/02/21 04:15:54;;;;;;;18.13;8.55;;;;;;;;;;5072176;28;20487;-59
2024/02/21 04:18:21;;;;;;;18.95;8.52;;;;;;;;;;5069466;28;20048;-59
2024/02/21 04:20:48;;;;;;;16.98;8.27;;;;;;;;;;5052237;28;20408;-60
2024/02/21 04:23:15;;;;;;;15.77;8.02;;;;;;;;;;5056270;28;20407;-60
2024/02/21 04:25:42;;;;;;;14.85;8.80;;;;;;;;;;5072244;28;20052;-60
2024/02/21 04:28:10;;;;;;;16.30;8.02;;;;;;;;;;5072469;28;20056;-59
2024/02/21 04:30:36;;;;;;;16.88;8.70;;;;;;;;;;5056071;28;20138;-59
2024/02/21 04:33:03;;;;;;;11.77;7.18;;;;;;;;;;5052356;28;20052;-59
2024/02/21 04:35:30;;;;;;;16.60;8.15;;;;;;;;;;5052117;28;20424;-59
2024/02/21 04:37:57;;;;;;;15.98;8.55;;;;;;;;;;5052298;28;20444;-59
2024/02/21 04:40:24;;;;;;;16.23;9.95;;;;;;;;;;5051649;28;20151;-60
2024/02/21 04:42:51;;;;;;;14.85;8.63;;;;;;;;;;5052246;28;20049;-60
2024/02/21 04:45:19;;;;;;;13.60;7.82;;;;;;;;;;5052174;28;20064;-59
2024/02/21 04:47:46;;;;;;;13.45;8.18;;;;;;;;;;5052082;28;20061;-60
2024/02/21 04:50:12;;;;;;;11.55;7.97;;;;;;;;;;5052731;28;20049;-59
2024/02/21 04:52:39;;;;;;;18.88;9.02;;;;;;;;;;5052250;28;20060;-59
2024/02/21 04:55:07;;;;;;;14.98;7.93;;;;;;;;;;5051992;28;20060;-59
2024/02/21 04:57:34;;;;;;;15.68;8.30;;;;;;;;;;5051815;28;20053;-59
2024/02/21 05:00:00;;;;;;;16.17;7.65;;;;;;;;;;5051303;28;20057;-59
2024/02/21 05:02:28;;;;;;;15.48;8.10;;;;;;;;;;5051875;28;20415;-59
2024/02/21 05:04:56;;;;;;;17.25;7.88;;;;;;;;;;5060378;28;20491;-60
2024/02/21 05:07:22;;;;;;;14.95;7.85;;;;;;;;;;5071854;28;20064;-59
2024/02/21 05:09:49;;;;;;;15.77;8.00;;;;;;;;;;5072173;28;20052;-59
2024/02/21 05:12:16;;;;;;;13.52;7.63;;;;;;;;;;5074591;28;20052;-59
2024/02/21 05:14:43;;;;;;;14.07;7.93;;;;;;;;;;5074991;28;20063;-59
2024/02/21 05:17:10;;;;;;;15.15;8.00;;;;;;;;;;5075756;28;20407;-60
2024/02/21 05:19:38;;;;;;;16.58;7.95;;;;;;;;;;5062710;28;20053;-60
2024/02/21 05:22:05;;;;;;;12.05;7.00;;;;;;;;;;5055619;28;20404;-59
2024/02/21 05:24:32;;;;;;;15.02;7.45;;;;;;;;;;5055239;28;20057;-60
2024/02/21 05:26:59;;;;;;;13.63;7.10;;;;;;;;;;5055645;28;20053;-59
2024/02/21 05:29:25;;;;;;;15.55;7.40;;;;;;;;;;5058212;28;20049;-59
2024/02/21 05:31:55;;;;;;;15.25;7.25;;;;;;;;;;5055723;28;20496;-60
2024/02/21 05:34:22;;;;;;;13.73;6.85;;;;;;;;;;5056032;28;20060;-59
2024/02/21 05:36:50;;;;;;;13.30;7.13;;;;;;;;;;5055644;28;20056;-59
2024/02/21 05:39:17;;;;;;;13.85;7.50;;;;;;;;;;5055379;28;20052;-59
2024/02/21 05:41:44;;;;;;;12.00;7.18;;;;;;;;;;5055428;28;20064;-59
2024/02/21 05:44:11;;;;;;;12.40;6.63;;;;;;;;;;5055204;28;20060;-59
2024/02/21 05:46:38;;;;;;;14.82;6.78;;;;;;;;;;5054949;28;20064;-59
2024/02/21 05:49:04;;;;;;;13.93;7.05;;;;;;;;;;5055018;28;20053;-60
2024/02/21 05:51:33;;;;;;;13.40;7.22;;;;;;;;;;5055846;28;20052;-59
2024/02/21 05:54:01;;;;;;;15.55;6.63;;;;;;;;;;5054810;28;20088;-59
2024/02/21 05:56:28;;;;;;;12.30;6.55;;;;;;;;;;5054884;28;20060;-60
2024/02/21 05:58:55;;;;;;;12.90;6.78;;;;;;;;;;5055081;28;20057;-59
2024/02/21 06:01:21;;;;;;;17.17;7.05;;;;;;;;;;5068267;28;20056;-60
2024/02/21 06:03:48;;;;;;;15.95;7.57;;;;;;;;;;5055651;28;20049;-60
2024/02/21 06:06:15;;;;;;;13.32;7.55;;;;;;;;;;5054649;28;20517;-60
2024/02/21 06:08:42;;;;;;;13.05;6.65;;;;;;;;;;5054650;28;20060;-59
2024/02/21 06:11:10;;;;;;;12.80;6.95;;;;;;;;;;5071070;28;20048;-59
2024/02/21 06:13:39;;;;;;;11.10;6.63;;;;;;;;;;5074837;28;20052;-60
2024/02/21 06:16:06;;;;;;;11.50;6.25;;;;;;;;;;5061784;28;20407;-60
2024/02/21 06:18:33;;;;;;;15.65;6.68;;;;;;;;;;5054104;28;20049;-60
2024/02/21 06:21:00;;;;;;;14.82;6.72;;;;;;;;;;5054176;28;20345;-59
2024/02/21 06:23:26;;;;;;;11.05;6.22;;;;;;;;;;5053355;28;20064;-59
2024/02/21 06:25:52;;;;;;;10.13;6.13;;;;;;;;;;5054216;28;20530;-60
2024/02/21 06:28:21;;;;;;;12.95;6.50;;;;;;;;;;5057160;28;20076;-59
2024/02/21 06:30:48;;;;;;;11.27;6.28;;;;;;;;;;5073653;28;20048;-59
2024/02/21 06:33:14;;;;;;;12.25;6.72;;;;;;;;;;5070376;28;20514;-59
2024/02/21 06:35:42;;;;;;;12.73;6.38;;;;;;;;;;5054155;28;20063;-59
2024/02/21 06:38:09;;;;;;;13.88;6.38;;;;;;;;;;5055249;28;20057;-59
2024/02/21 06:40:39;;;;;;;9.10;5.85;;;;;;;;;;5065655;28;20061;-59
2024/02/21 06:43:05;;;;;;;;;;;;;;;;;;5068792;28;20075;-60
2024/02/21 06:45:33;;;;;;;9.40;5.40;;;;;;;;;;5055482;28;19921;-59
2024/02/21 06:48:00;;;;;;;11.20;5.35;;;;;;;;;;5060817;28;20060;-59
2024/02/21 06:50:27;;;;;;;8.95;5.50;;;;;;;;;;5055795;28;20526;-59
2024/02/21 06:52:54;;;;;;;10.73;5.32;;;;;;;;;;5057833;28;20045;-59
2024/02/21 06:55:20;;;;;;;12.38;5.90;;;;;;;;;;5065901;28;20053;-59
2024/02/21 06:57:48;;;;;;;10.93;5.78;;;;;;;;;;5068274;28;20053;-59
2024/02/21 07:00:16;;;;;;;13.75;5.50;;;;;;;;;;5054973;28;20475;-60
2024/02/21 07:02:44;;;;;;;10.95;5.28;;;;;;;;;;5059680;28;20053;-59
2024/02/21 07:05:11;;;;;;;10.18;5.57;;;;;;;;;;5053880;28;20476;-59
2024/02/21 07:07:37;;;;;;;13.27;5.95;;;;;;;;;;5053375;28;20053;-59
2024/02/21 07:10:04;;;;;;;11.60;6.40;;;;;;;;;;5053149;28;20063;-59
2024/02/21 07:12:31;;;;;;;12.73;6.10;;;;;;;;;;5053909;28;20049;-59
2024/02/21 07:14:58;;;;;;;11.10;5.65;;;;;;;;;;5053020;28;20057;-59
2024/02/21 07:17:25;;;;;;;12.65;6.47;;;;;;;;;;5062983;28;20055;-59
2024/02/21 07:19:56;;;;;;;12.05;6.05;;;;;;;;;;5056579;28;20070;-59
2024/02/21 07:22:23;;;;;;;12.30;5.80;;;;;;;;;;5058370;28;20048;-59
2024/02/21 07:24:50;;;;;;;9.60;6.18;;;;;;;;;;5060422;28;20159;-59
2024/02/21 07:27:17;;;;;;;12.60;5.70;;;;;;;;;;5053022;28;20060;-60
2024/02/21 07:29:47;;;;;;;10.32;5.55;;;;;;;;;;5056633;28;20554;-60
2024/02/21 07:32:14;;;;;;;10.18;5.53;;;;;;;;;;5056038;28;20408;-59
2024/02/21 07:34:40;;;;;;;11.60;6.10;;;;;;;;;;5065837;28;20055;-59
2024/02/21 07:37:09;;;;;;;10.80;5.75;;;;;;;;;;5072237;28;20052;-59
2024/02/21 07:39:37;;;;;;;11.90;6.07;;;;;;;;;;5060968;28;20059;-59
2024/02/21 07:42:04;;;;;;;13.70;6.40;;;;;;;;;;5065391;28;20048;-59
2024/02/21 07:44:31;;;;;;;12.68;6.35;;;;;;;;;;5064061;28;20064;-59
2024/02/21 07:46:58;;;;;;;11.95;6.20;;;;;;;;;;5060017;28;20579;-60
2024/02/21 07:49:25;;;;;;;10.00;5.88;;;;;;;;;;5063274;28;20056;-60
2024/02/21 07:51:52;;;;;;;13.40;6.47;;;;;;;;;;5055837;28;20071;-60
2024/02/21 07:54:20;;;;;;;11.43;5.65;;;;;;;;;;5062614;28;20056;-59
2024/02/21 07:56:48;;;;;;;12.25;5.95;;;;;;;;;;5068363;28;20058;-58
2024/02/21 07:59:15;;;;;;;10.70;6.07;;;;;;;;;;5064907;28;20507;-58
2024/02/21 08:01:42;;;;;;;12.77;6.72;;;;;;;;;;5065008;28;20491;-58
2024/02/21 08:04:09;;;;;;;15.70;7.53;;;;;;;;;;5070912;28;20056;-59
2024/02/21 08:06:35;;;;;;;11.38;6.80;;;;;;;;;;5068421;28;20045;-58
2024/02/21 08:09:02;;;;;;;15.35;6.78;;;;;;;;;;5072982;28;20059;-58
2024/02/21 08:11:30;;;;;;;12.93;6.30;;;;;;;;;;5071126;28;20056;-59
2024/02/21 08:13:57;;;;;;;10.98;6.70;;;;;;;;;;5070685;28;20483;-60
2024/02/21 08:16:25;;;;;;;13.73;7.18;;;;;;;;;;5056300;28;20610;-59
2024/02/21 08:18:52;;;;;;;14.25;7.40;;;;;;;;;;5073237;28;20462;-58
2024/02/21 08:21:19;;;;;;;12.55;7.32;;;;;;;;;;5065093;28;20055;-58
2024/02/21 08:23:46;;;;;;;12.27;6.68;;;;;;;;;;5052993;28;20048;-59
2024/02/21 08:26:12;;;;;;;13.45;6.72;;;;;;;;;;5063721;28;20074;-59
2024/02/21 08:28:40;;;;;;;10.27;6.50;;;;;;;;;;5056754;28;20055;-59
2024/02/21 08:31:07;;;;;;;10.55;5.78;;;;;;;;;;5052905;28;20387;-59
2024/02/21 08:33:34;;;;;;;12.05;6.32;;;;;;;;;;5052117;28;20425;-59
2024/02/21 08:36:01;;;;;;;9.98;5.50;;;;;;;;;;5068044;28;20056;-58
2024/02/21 08:38:27;;;;;;;9.52;5.43;;;;;;;;;;5072026;28;20056;-58
2024/02/21 08:40:54;;;;;;;8.77;5.35;;;;;;;;;;5058146;28;20059;-58
2024/02/21 08:43:21;;;;;;;9.68;5.32;;;;;;;;;;5059495;28;20052;-59
2024/02/21 08:45:49;;;;;;;11.30;6.00;;;;;;;;;;5062267;28;20060;-59
2024/02/21 08:48:16;;;;;;;8.50;5.18;;;;;;;;;;5055873;28;20049;-58
2024/02/21 08:50:43;;;;;;;10.18;5.28;;;;;;;;;;5064711;28;20123;-60
2024/02/21 08:53:10;;;;;;;8.60;5.60;;;;;;;;;;5058293;28;20053;-58
2024/02/21 08:55:37;;;;;;;10.95;6.93;;;;;;;;;;5063326;28;20053;-59
2024/02/21 08:58:04;;;;;;;11.77;6.32;;;;;;;;;;5056923;28;20365;-58
2024/02/21 09:00:31;;;;;;;13.50;6.32;;;;;;;;;;5058820;28;20415;-59
2024/02/21 09:02:59;;;;;;;13.63;7.45;;;;;;;;;;5070538;28;20075;-59
2024/02/21 09:05:26;;;;;;;10.45;7.75;;;;;;;;;;5073669;28;20048;-59
2024/02/21 09:07:52;;;;;;;13.75;7.95;;;;;;;;;;5063795;28;20064;-59
2024/02/21 09:10:19;;;;;;;12.20;7.53;;;;;;;;;;5066414;28;20049;-59
2024/02/21 09:12:47;;;;;;;11.38;7.53;;;;;;;;;;5062495;28;20063;-59
2024/02/21 09:15:14;;;;;;;11.88;7.50;;;;;;;;;;5063005;28;20057;-59
2024/02/21 09:17:43;;;;;;;12.80;6.80;;;;;;;;;;5062851;28;20052;-61
2024/02/21 09:20:12;;;;;;;11.38;7.13;;;;;;;;;;5062408;28;20064;-59
2024/02/21 09:22:41;;;;;;;12.77;5.55;;;;;;;;;;5066224;28;20051;-58
2024/02/21 09:25:10;;;;;;;14.85;5.22;;;;;;;;;;5067121;28;20519;-59
2024/02/21 09:27:36;;;;;;;8.97;5.10;;;;;;;;;;5058732;28;20069;-58
2024/02/21 09:30:04;;;;;;;11.05;4.97;;;;;;;;;;5060614;28;20052;-59
2024/02/21 09:32:32;;;;;;;11.85;4.78;;;;;;;;;;5055019;28;20045;-59
2024/02/21 09:34:59;;;;;;;14.10;5.15;;;;;;;;;;5054728;28;20064;-59
2024/02/21 09:37:27;;;;;;;8.82;4.40;;;;;;;;;;5061690;28;20045;-59
2024/02/21 09:39:54;;;;;;;9.18;4.57;;;;;;;;;;5052988;28;20049;-59
2024/02/21 09:42:21;;;;;;;10.02;4.70;;;;;;;;;;5055850;28;20052;-60
2024/02/21 09:44:49;;;;;;;10.75;4.85;;;;;;;;;;5064461;28;20056;-58
2024/02/21 09:47:18;;;;;;;9.38;4.30;;;;;;;;;;5054401;28;20052;-58
2024/02/21 09:49:45;;;;;;;12.82;4.53;;;;;;;;;;5055051;28;20056;-59
2024/02/21 09:52:14;;;;;;;9.60;4.85;;;;;;;;;;5060614;28;20045;-58
2024/02/21 09:54:44;;;;;;;9.70;4.68;;;;;;;;;;5061435;28;20056;-58
2024/02/21 09:57:11;;;;;;;12.82;5.00;;;;;;;;;;5062068;28;20521;-59
2024/02/21 09:59:38;;;;;;;10.82;4.75;;;;;;;;;;5071753;28;20479;-59
2024/02/21 10:02:06;;;;;;;8.75;4.70;;;;;;;;;;5059820;28;20052;-58
2024/02/21 10:04:33;;;;;;;11.57;5.22;;;;;;;;;;5054549;28;20056;-58
2024/02/21 10:06:59;;;;;;;13.07;5.50;;;;;;;;;;5057624;28;20056;-58
2024/02/21 10:09:27;;;;;;;10.45;4.82;;;;;;;;;;5072024;28;20059;-58
2024/02/21 10:11:56;;;;;;;11.43;4.97;;;;;;;;;;5071568;28;20053;-58
2024/02/21 10:14:22;;;;;;;10.45;5.13;;;;;;;;;;5068484;28;20052;-58
2024/02/21 10:16:50;;;;;;;14.35;5.25;;;;;;;;;;5068487;28;20109;-58
2024/02/21 10:19:17;;;;;;;10.32;5.35;;;;;;;;;;5064150;28;20067;-58
2024/02/21 10:21:44;;;;;;;11.18;5.22;;;;;;;;;;5067006;28;20407;-58
2024/02/21 10:24:12;;;;;;;12.05;5.20;;;;;;;;;;5061387;28;20048;-57
2024/02/21 10:26:39;;;;;;;13.55;5.35;;;;;;;;;;5055793;28;20061;-58
2024/02/21 10:29:07;;;;;;;12.25;4.90;;;;;;;;;;5063767;28;20063;-59
2024/02/21 10:31:34;;;;;;;13.30;4.78;;;;;;;;;;5062644;28;20506;-63
2024/02/21 10:34:03;;;;;;;15.13;5.07;;;;;;;;;;5065989;28;20053;-58
2024/02/21 10:36:30;;;;;;;11.65;5.25;;;;;;;;;;5067684;28;20045;-58
2024/02/21 10:38:57;;;;;;;9.88;4.88;;;;;;;;;;5061260;28;20060;-58
2024/02/21 10:41:24;;;;;;;10.02;5.07;;;;;;;;;;5061281;28;20045;-58
2024/02/21 10:43:52;;;;;;;9.95;4.90;;;;;;;;;;5059250;28;20051;-58
2024/02/21 10:46:21;;;;;;;11.70;5.00;;;;;;;;;;5058228;28;20554;-58
2024/02/21 10:48:49;;;;;;;12.43;5.60;;;;;;;;;;5061315;28;20057;-57
2024/02/21 10:51:19;;;;;;;8.85;4.55;;;;;;;;;;5059885;28;20057;-58
2024/02/21 10:53:47;;;;;;;10.75;4.47;;;;;;;;;;5065532;28;20063;-58
2024/02/21 10:56:22;;;;;;;12.95;4.95;;;;;;;;;;5059452;28;20051;-58
2024/02/21 10:58:49;;;;;;;12.02;4.25;;;;;;;;;;5063554;28;20459;-58
2024/02/21 11:01:17;;;;;;;8.85;4.80;;;;;;;;;;5058791;28;20053;-58
2024/02/21 11:03:46;;;;;;;8.52;4.13;;;;;;;;;;5056858;28;20049;-57
2024/02/21 11:06:14;;;;;;;9.10;3.92;;;;;;;;;;5054929;28;20056;-58
2024/02/21 11:08:40;;;;;;;9.90;4.28;;;;;;;;;;5056778;28;20049;-58
2024/02/21 11:11:07;;;;;;;10.32;4.43;;;;;;;;;;5065979;28;20060;-57
2024/02/21 11:13:36;;;;;;;7.57;3.75;;;;;;;;;;5053153;28;20045;-57
2024/02/21 11:16:10;;;;;;;8.57;3.95;;;;;;;;;;5053256;28;20053;-58
2024/02/21 11:18:37;;;;;;;10.13;4.25;;;;;;;;;;5059514;28;20056;-60
2024/02/21 11:21:06;;;;;;;9.60;4.07;;;;;;;;;;5057173;28;20056;-57
2024/02/21 11:23:32;;;;;;;9.45;4.00;;;;;;;;;;5066524;28;20059;-58
2024/02/21 11:26:06;;;;;;;7.80;3.90;;;;;;;;;;5072156;28;20060;-58
2024/02/21 11:28:33;;;;;;;7.13;3.47;;;;;;;;;;5049071;28;20051;-57
2024/02/21 11:31:07;;;;;;;10.15;4.18;;;;;;;;;;5053427;28;20053;-58
2024/02/21 11:33:34;;;;;;;9.35;3.80;;;;;;;;;;5050947;28;20045;-57
2024/02/21 11:36:01;;;;;;;8.73;3.80;;;;;;;;;;5048703;28;20060;-58
2024/02/21 11:38:29;;;;;;;8.20;3.63;;;;;;;;;;5053461;28;20480;-57
2024/02/21 11:40:56;;;;;;;8.32;3.83;;;;;;;;;;5048655;28;20052;-59
2024/02/21 11:43:23;;;;;;;9.30;4.30;;;;;;;;;;5056172;28;20036;-59
2024/02/21 11:45:50;;;;;;;10.95;3.92;;;;;;;;;;5050325;28;20075;-59
2024/02/21 11:48:16;;;;;;;7.53;3.72;;;;;;;;;;5050843;28;20491;-58
2024/02/21 11:50:43;;;;;;;8.93;3.92;;;;;;;;;;5050424;28;20053;-59
2024/02/21 11:53:10;;;;;;;9.57;3.55;;;;;;;;;;5050631;28;20075;-58
2024/02/21 11:55:39;;;;;;;6.88;3.95;;;;;;;;;;5064407;28;20053;-58
2024/02/21 11:58:05;;;;;;;9.98;4.00;;;;;;;;;;5068618;28;20411;-58
2024/02/21 12:00:32;;;;;;;9.60;4.00;;;;;;;;;;5069749;28;20048;-59
2024/02/21 12:03:01;;;;;;;7.70;3.92;;;;;;;;;;5060233;28;20475;-60
2024/02/21 12:05:28;;;;;;;8.40;4.00;;;;;;;;;;5060691;28;20141;-59
2024/02/21 12:07:55;;;;;;;6.47;3.70;;;;;;;;;;5066455;28;20080;-60
2024/02/21 12:10:22;;;;;;;8.35;3.47;;;;;;;;;;5063624;28;20071;-59
2024/02/21 12:12:51;;;;;;;8.95;3.90;;;;;;;;;;5056810;28;20400;-60
2024/02/21 12:15:19;;;;;;;9.38;4.00;;;;;;;;;;5072022;28;20526;-60
2024/02/21 12:17:48;;;;;;;8.55;4.05;;;;;;;;;;5065247;28;20049;-59
2024/02/21 12:20:15;;;;;;;8.32;3.60;;;;;;;;;;5051876;28;20048;-60
2024/02/21 12:22:42;;;;;;;8.20;4.10;;;;;;;;;;5057710;28;20049;-59
2024/02/21 12:25:17;;;;;;;10.18;4.45;;;;;;;;;;5059402;28;20254;-59
2024/02/21 12:27:44;;;;;;;8.85;3.72;;;;;;;;;;5071732;28;20059;-59
2024/02/21 12:30:12;;;;;;;9.00;3.90;;;;;;;;;;5068283;28;20419;-61
2024/02/21 12:32:41;;;;;;;9.07;3.97;;;;;;;;;;5052317;28;20415;-59
2024/02/21 12:35:08;;;;;;;10.80;3.72;;;;;;;;;;5058191;28;20060;-60
2024/02/21 12:37:35;;;;;;;10.13;4.10;;;;;;;;;;5060132;28;20057;-60
2024/02/21 12:40:06;;;;;;;9.13;3.65;;;;;;;;;;5051816;28;20059;-59
2024/02/21 12:42:33;;;;;;;9.30;3.53;;;;;;;;;;5063202;28;20052;-60
2024/02/21 12:45:00;;;;;;;8.55;3.55;;;;;;;;;;5071478;28;20041;-60
2024/02/21 12:47:28;;;;;;;8.13;3.25;;;;;;;;;;5054040;28;20064;-59
2024/02/21 12:49:55;;;;;;;6.78;3.05;;;;;;;;;;5054933;28;20052;-59
2024/02/21 12:52:22;;;;;;;9.27;3.38;;;;;;;;;;5056090;28;20063;-59
2024/02/21 12:54:50;;;;;;;8.50;3.53;;;;;;;;;;5052237;28;20060;-59
2024/02/21 12:57:17;;;;;;;8.63;3.83;;;;;;;;;;5061071;28;20048;-60
2024/02/21 12:59:45;;;;;;;7.95;3.05;;;;;;;;;;5069284;28;20044;-59
2024/02/21 13:02:12;;;;;;;7.57;3.40;;;;;;;;;;5057098;28;20376;-60
2024/02/21 13:04:41;;;;;;;8.48;3.63;;;;;;;;;;5051937;28;20045;-59
2024/02/21 13:07:08;;;;;;;8.18;3.22;;;;;;;;;;5059126;28;20166;-60
2024/02/21 13:09:34;;;;;;;7.72;3.45;;;;;;;;;;5065588;28;20049;-60
2024/02/21 13:12:02;;;;;;;7.95;3.10;;;;;;;;;;5060328;28;20407;-59
2024/02/21 13:14:29;;;;;;;9.50;3.53;;;;;;;;;;5063857;28;20049;-60
2024/02/21 13:16:55;;;;;;;10.73;3.92;;;;;;;;;;5059916;28;20067;-59
2024/02/21 13:19:22;;;;;;;9.13;3.25;;;;;;;;;;5065311;28;20060;-59
2024/02/21 13:21:50;;;;;;;7.30;3.20;;;;;;;;;;5054390;28;20053;-60
2024/02/21 13:24:17;;;;;;;10.50;3.45;;;;;;;;;;5071200;28;20060;-60
2024/02/21 13:26:44;;;;;;;7.90;3.33;;;;;;;;;;5052899;28;20053;-59
2024/02/21 13:29:11;;;;;;;7.85;3.72;;;;;;;;;;5063018;28;20068;-59
2024/02/21 13:31:38;;;;;;;8.88;3.33;;;;;;;;;;5054712;28;20048;-59
2024/02/21 13:34:05;;;;;;;7.15;3.78;;;;;;;;;;5060906;28;20075;-59
2024/02/21 13:36:32;;;;;;;9.05;3.38;;;;;;;;;;5075182;28;20057;-59
2024/02/21 13:39:00;;;;;;;8.77;4.10;;;;;;;;;;5064285;28;20053;-59
2024/02/21 13:41:27;;;;;;;8.38;4.18;;;;;;;;;;5061403;28;20056;-60
2024/02/21 13:43:54;;;;;;;9.73;4.10;;;;;;;;;;5065533;28;20488;-59
2024/02/21 13:46:22;;;;;;;9.00;3.60;;;;;;;;;;5059584;28;20049;-60
2024/02/21 13:48:48;;;;;;;10.27;3.95;;;;;;;;;;5064334;28;20064;-60
2024/02/21 13:51:16;;;;;;;9.15;3.80;;;;;;;;;;5059573;28;20081;-59
2024/02/21 13:53:43;;;;;;;8.43;4.20;;;;;;;;;;5063059;28;20049;-59
2024/02/21 13:56:11;;;;;;;9.05;3.65;;;;;;;;;;5067752;28;20381;-59
2024/02/21 13:58:38;;;;;;;10.95;3.60;;;;;;;;;;5065910;28;20055;-59
2024/02/21 14:01:05;;;;;;;7.85;3.72;;;;;;;;;;5066294;28;20056;-59
2024/02/21 14:03:32;;;;;;;10.52;4.10;;;;;;;;;;5057156;28;20053;-47
2024/02/21 14:05:59;;;;;;;8.30;3.60;;;;;;;;;;5056505;28;20049;-46
2024/02/21 14:08:26;;;;;;;8.95;3.03;;;;;;;;;;5054796;28;20056;-49
2024/02/21 14:10:53;;;;;;;7.63;3.13;;;;;;;;;;5058570;28;20045;-46
2024/02/21 14:13:21;;;;;;;7.18;3.50;;;;;;;;;;5056527;28;20393;-60
2024/02/21 14:15:49;;;;;;;6.00;3.17;;;;;;;;;;5072612;28;20045;-61
2024/02/21 14:18:16;;;;;;;9.13;3.65;;;;;;;;;;5068748;28;20186;-59
2024/02/21 14:20:43;;;;;;;7.70;3.83;;;;;;;;;;5073534;28;20056;-59
2024/02/21 14:23:10;;;;;;;9.73;3.83;;;;;;;;;;5053943;28;20064;-59
2024/02/21 14:25:39;;;;;;;7.65;3.40;;;;;;;;;;5054492;28;20476;-59
2024/02/21 14:28:06;;;;;;;9.38;4.00;;;;;;;;;;5055417;28;20052;-59
2024/02/21 14:30:34;;;;;;;5.93;3.10;;;;;;;;;;5055572;28;20052;-59
2024/02/21 14:33:01;;;;;;;8.63;3.47;;;;;;;;;;5056279;28;20056;-59